AKDT,Max TemperatureF,Mean TemperatureF,Min TemperatureF,Max Dew PointF,MeanDew PointF,Min DewpointF,Max Humidity, Mean Humidity, Min Humidity, Max Sea Level PressureIn, Mean Sea Level PressureIn, Min Sea Level PressureIn, Max VisibilityMiles, Mean VisibilityMiles, Min VisibilityMiles, Max Wind SpeedMPH, Mean Wind SpeedMPH, Max Gust SpeedMPH,PrecipitationIn, CloudCover, Events, WindDirDegrees
2012-7-1,53,49,45,48,46,43,97,90,80,29.94,29.88,29.84,10,10,9,10,5,,0.16,8,Rain,18
2012-7-2,61,52,46,50,47,46,100,84,67,29.93,29.87,29.83,10,10,10,13,3,,0.04,6,Rain,292
2012-7-3,55,50,46,49,47,45,97,87,75,30.02,29.95,29.92,10,10,9,9,4,,0.00,5,,298
2012-7-4,55,52,48,50,48,46,100,88,82,30.09,30.06,30.02,10,10,5,8,1,,0.00,8,Rain,217
2012-7-5,55,52,48,47,46,45,93,81,72,30.07,30.05,30.03,10,10,10,6,1,,0.00,8,,307
2012-7-6,53,52,50,52,49,46,100,93,77,30.03,29.99,29.96,10,10,5,9,3,,0.17,8,Rain,337
2012-7-7,54,52,50,52,49,46,100,94,80,30.18,30.07,29.96,10,9,2,20,5,28,0.30,8,Rain,220
2012-7-8,57,52,48,49,47,42,100,82,63,30.17,30.13,30.10,10,10,10,7,1,,0.00,7,,246
2012-7-9,53,51,48,52,50,47,100,96,89,30.09,29.90,29.82,10,6,2,14,3,18,1.20,8,Rain,194
2012-7-10,55,52,48,52,47,42,100,88,69,30.25,30.13,29.86,10,10,3,16,8,23,0.09,8,Rain,162
2012-7-11,55,50,46,47,45,42,100,85,62,30.24,30.22,30.17,10,10,8,9,5,,0.00,7,,8
2012-7-12,57,49,43,52,48,43,100,89,67,30.16,30.14,30.12,10,8,2,8,2,,0.13,5,Rain,274
2012-7-13,53,52,51,54,52,51,100,100,100,30.22,30.18,30.13,10,4,2,12,4,,0.41,8,Rain,219
2012-7-14,57,54,51,52,50,46,100,90,72,30.28,30.23,30.18,10,8,2,18,6,,0.02,8,,321
2012-7-15,57,54,51,52,49,48,100,86,77,30.30,30.26,30.22,10,9,3,10,7,,0.00,7,,257
2012-7-16,54,52,50,52,49,47,100,90,80,30.24,30.21,30.15,10,8,3,15,5,,0.00,8,Rain,314
2012-7-17,55,52,50,50,49,48,96,89,82,30.14,30.09,30.04,10,9,5,14,8,,0.00,8,Rain,306
2012-7-18,55,52,50,49,48,46,96,85,75,30.04,29.99,29.90,10,10,10,9,5,,0.00,6,,308
2012-7-19,57,54,51,56,52,48,100,91,75,29.94,29.90,29.86,10,10,7,10,5,,0.18,8,Rain,346
2012-7-20,68,62,55,56,54,53,97,86,65,30.00,29.94,29.90,10,10,10,9,5,,0.00,5,,310
2012-7-21,57,55,53,56,55,53,100,98,87,30.19,30.14,30.00,10,6,0,8,3,,0.02,8,Fog-Rain,196
2012-7-22,62,58,53,55,54,51,100,90,77,30.20,30.17,30.15,10,10,10,8,3,,0.00,7,,248
2012-7-23,60,56,53,54,53,52,100,92,81,30.27,30.22,30.20,10,9,2,16,3,,0.00,8,Rain,289
2012-7-24,57,54,51,54,51,49,100,90,77,30.28,30.26,30.21,10,9,3,15,10,,0.02,8,Fog-Rain,305
2012-7-25,59,55,53,53,51,49,94,87,81,30.20,30.13,30.04,10,10,10,8,4,,0.00,7,,295
2012-7-26,60,56,53,55,54,52,100,94,87,30.03,29.97,29.91,10,10,10,9,3,,0.00,8,Fog-Rain,233
2012-7-27,55,54,53,55,54,52,100,99,93,30.03,29.94,29.88,10,6,2,13,5,,0.57,8,Rain,278
2012-7-28,59,54,50,55,52,49,100,93,77,30.16,30.10,30.03,10,9,2,13,4,,0.04,7,Rain,209
2012-7-29,57,54,50,55,53,50,100,96,83,30.10,30.05,30.01,10,9,3,9,2,,0.06,8,Rain,243
2012-7-30,57,54,52,55,53,51,100,95,84,30.02,30.00,29.98,10,10,7,14,2,,0.00,8,Rain,185
2012-7-31,59,54,52,54,52,48,100,91,70,29.99,29.90,29.81,10,9,2,17,6,23,0.52,8,Rain,116